Terminal Aerodrome Forecast
Issued by NWS

Home | Current Version | Previous Version | Text Only | Print | Product List | Glossary On
Versions: 1 2 3 4 5 6 7 8 9 10 11 12 13 14 15 16 17
000
FTUS44 KLZK 221236 AAA
TAFPBF
TAF AMD
KPBF 221236Z 2213/2312 00000KT P6SM SCT100 SCT250
      TEMPO 2213/2214 4SM BR
     FM221400 23004KT P6SM VCTS SCT025CB BKN100
     FM230000 VRB03KT P6SM OVC250
     FM230600 00000KT 4SM BR FEW250=

USA.gov is the U.S. government's official web portal to all federal, state and local government web resources and services.